EVRA/RIX METAR and TAF weather

Enter ICAO airport designator
Station Type Date Time Source
EVRA METAR 2018/01/19 22:50 UTC NOAA

EVRA 192250Z 33002KT 9000 OVC042 M02/M03 Q1006 R36/590295 NOSIG


Station Type Date Time Source
EVRA Decoded METAR 2018/01/19 22:50 UTC NOAA

Riga International Airport, Latvia (EVRA) 56-55N 023-58E
Jan 19, 2018 - 05:50 PM EST / 2018.01.19 2250 UTC
Wind: from the NNW (330 degrees) at 2 MPH (2 KT):0
Visibility: 5 mile(s):0
Sky conditions: overcast
Temperature: 28 F (-2 C)
Dew Point: 26 F (-3 C)
Relative Humidity: 92%
Pressure (altimeter): 29.71 in. Hg (1006 hPa)
ob: EVRA 192250Z 33002KT 9000 OVC042 M02/M03 Q1006 R36/590295 NOSIG
cycle: 23

Station Type Date Time Source
EVRA TAF 2018/01/19 21:03 UTC NOAA

TAF TAF EVRA 192000Z 1921/2021 02006KT 9999 OVC020
TEMPO 2000/2009 3000 -SN BR BKN010 OVC020


Example: see airport list